createdAt,value
2023-01-30T00:01:48.341Z,48.93
2023-01-30T00:04:17.412Z,50.60
2023-01-30T00:06:45.811Z,52.80
2023-01-30T00:09:15.635Z,47.87
2023-01-30T00:11:43.758Z,54.13
2023-01-30T00:14:13.226Z,50.07
2023-01-30T00:16:42.053Z,51.03
2023-01-30T00:19:10.293Z,53.37
2023-01-30T00:21:38.302Z,49.97
2023-01-30T00:24:06.848Z,47.60
2023-01-30T00:26:35.049Z,50.33
2023-01-30T00:29:03.196Z,54.73
2023-01-30T00:31:33.405Z,55.47
2023-01-30T00:34:01.522Z,51.20
2023-01-30T00:36:29.563Z,55.60
2023-01-30T00:38:59.981Z,55.03
2023-01-30T00:41:48.491Z,54.23
2023-01-30T00:44:33.819Z,54.90
2023-01-30T00:47:06.702Z,59.37
2023-01-30T00:49:34.792Z,54.53
2023-01-30T00:52:03.243Z,53.40
2023-01-30T00:54:31.588Z,54.80
2023-01-30T00:56:59.917Z,51.90
2023-01-30T00:59:28.097Z,57.40
2023-01-30T01:01:56.281Z,55.67
2023-01-30T01:04:25.946Z,49.43
2023-01-30T01:06:54.277Z,54.90
2023-01-30T01:09:22.341Z,56.03
2023-01-30T01:11:50.471Z,55.03
2023-01-30T01:14:18.533Z,55.70
2023-01-30T01:16:46.760Z,53.20
2023-01-30T01:19:14.805Z,55.30
2023-01-30T01:21:44.269Z,52.33
2023-01-30T01:24:14.537Z,54.20
2023-01-30T01:26:43.055Z,51.43
2023-01-30T01:29:14.072Z,54.13
2023-01-30T01:31:42.274Z,56.20
2023-01-30T01:34:10.372Z,52.40
2023-01-30T01:36:53.291Z,56.80
2023-01-30T01:39:23.858Z,52.93
2023-01-30T01:41:51.309Z,55.50
2023-01-30T01:44:19.370Z,52.23
2023-01-30T01:46:52.053Z,54.00
2023-01-30T01:49:24.001Z,49.30
2023-01-30T01:51:57.745Z,49.90
2023-01-30T01:54:33.517Z,51.40
2023-01-30T01:57:04.847Z,48.10
2023-01-30T01:59:37.007Z,53.87
2023-01-30T02:02:10.144Z,51.60
2023-01-30T02:04:58.535Z,48.60
2023-01-30T02:07:27.448Z,48.60
2023-01-30T02:09:57.141Z,50.13
2023-01-30T02:12:26.775Z,50.93
2023-01-30T02:14:57.359Z,48.83
2023-01-30T02:17:25.937Z,50.13
2023-01-30T02:20:03.627Z,47.57
2023-01-30T02:23:01.478Z,48.53
2023-01-30T02:26:13.209Z,47.00
2023-01-30T02:29:11.699Z,49.33
2023-01-30T02:31:46.586Z,46.10
2023-01-30T02:34:31.889Z,46.00
2023-01-30T02:37:08.511Z,45.40
2023-01-30T02:39:49.898Z,45.07
2023-01-30T02:42:26.452Z,45.17
2023-01-30T02:45:02.526Z,45.33
2023-01-30T02:47:37.190Z,44.93
2023-01-30T02:50:11.471Z,44.37
2023-01-30T02:52:41.380Z,44.53
2023-01-30T02:55:11.707Z,45.00
2023-01-30T02:57:39.799Z,45.23
2023-01-30T03:00:09.780Z,42.47
2023-01-30T03:02:50.710Z,43.97
2023-01-30T03:05:32.918Z,41.80
2023-01-30T03:08:10.753Z,42.77
2023-01-30T03:10:44.993Z,38.90
2023-01-30T03:13:21.203Z,39.90
2023-01-30T03:15:53.511Z,37.70
2023-01-30T03:18:23.901Z,37.50
2023-01-30T03:20:53.200Z,38.20
2023-01-30T03:23:21.262Z,35.70
2023-01-30T03:25:50.445Z,37.93
2023-01-30T03:28:21.523Z,35.90
2023-01-30T03:30:50.609Z,34.80
2023-01-30T03:33:18.770Z,37.37
2023-01-30T03:35:51.217Z,35.40
2023-01-30T03:38:20.335Z,31.60
2023-01-30T03:40:51.367Z,32.00
2023-01-30T03:43:19.560Z,32.70
2023-01-30T03:45:47.660Z,30.90
2023-01-30T03:48:15.898Z,31.07
2023-01-30T03:50:44.139Z,30.30
2023-01-30T03:53:14.993Z,29.07
2023-01-30T03:55:44.743Z,27.93
2023-01-30T03:58:12.889Z,28.47
2023-01-30T04:00:41.502Z,26.30
2023-01-30T04:03:09.653Z,26.33
2023-01-30T04:05:38.469Z,25.37
2023-01-30T04:08:09.259Z,24.73
2023-01-30T04:10:38.928Z,25.50
2023-01-30T04:13:07.008Z,22.43
2023-01-30T04:15:35.851Z,21.47
2023-01-30T04:18:18.903Z,21.93
2023-01-30T04:20:52.512Z,20.57
2023-01-30T04:23:26.662Z,19.70
2023-01-30T04:25:56.114Z,19.03
2023-01-30T04:28:26.217Z,18.97
2023-01-30T04:30:55.560Z,18.67
2023-01-30T04:33:37.191Z,18.23
2023-01-30T04:36:09.237Z,14.93
2023-01-30T04:38:38.381Z,12.07
2023-01-30T04:41:08.893Z,8.50
2023-01-30T04:43:40.818Z,7.53
2023-01-30T04:46:25.525Z,8.90
2023-01-30T04:48:53.905Z,9.23
2023-01-30T04:51:21.957Z,9.90
2023-01-30T04:53:50.136Z,7.50
2023-01-30T04:56:19.621Z,13.80
2023-01-30T04:58:50.057Z,11.77
2023-01-30T05:01:24.655Z,11.80
2023-01-30T05:03:53.479Z,12.13
2023-01-30T05:06:21.844Z,9.80
2023-01-30T05:08:50.638Z,13.40
2023-01-30T05:11:21.130Z,12.43
2023-01-30T05:13:50.009Z,17.90
2023-01-30T05:16:19.302Z,15.77
2023-01-30T05:18:47.411Z,17.33
2023-01-30T05:21:17.126Z,21.50
2023-01-30T05:23:45.759Z,22.60
2023-01-30T05:26:14.720Z,19.93
2023-01-30T05:28:44.214Z,18.80
2023-01-30T05:31:14.446Z,22.20
2023-01-30T05:33:43.037Z,26.30
2023-01-30T05:36:16.064Z,21.20
2023-01-30T05:38:44.405Z,21.20
2023-01-30T05:41:13.870Z,21.20
2023-01-30T05:43:42.062Z,18.63
2023-01-30T05:46:13.539Z,23.00
2023-01-30T05:48:41.839Z,19.07
2023-01-30T05:51:17.654Z,22.33
2023-01-30T05:53:45.725Z,20.00
2023-01-30T05:56:13.815Z,21.93
2023-01-30T05:58:41.909Z,18.70
2023-01-30T06:01:14.165Z,27.47
2023-01-30T06:03:42.313Z,25.63
2023-01-30T06:06:13.418Z,22.50
2023-01-30T06:08:41.464Z,22.10
2023-01-30T06:11:11.197Z,27.13
2023-01-30T06:13:39.567Z,25.40
2023-01-30T06:16:08.482Z,21.50
2023-01-30T06:18:37.992Z,22.30
2023-01-30T06:21:06.613Z,22.13
2023-01-30T06:23:35.036Z,34.77
2023-01-30T06:26:04.981Z,24.87
2023-01-30T06:28:34.034Z,29.17
2023-01-30T06:31:02.564Z,21.67
2023-01-30T06:33:30.667Z,25.30
2023-01-30T06:36:00.100Z,19.90
2023-01-30T06:38:28.181Z,19.43
2023-01-30T06:40:56.334Z,22.73
2023-01-30T06:43:24.346Z,29.33
2023-01-30T06:45:52.433Z,22.30
2023-01-30T06:48:20.822Z,19.00
2023-01-30T06:50:48.990Z,17.23
2023-01-30T06:53:18.375Z,21.27
2023-01-30T06:55:46.478Z,25.17
2023-01-30T06:58:15.742Z,21.87
2023-01-30T07:00:44.406Z,19.57
2023-01-30T07:03:13.701Z,19.13
2023-01-30T07:05:43.378Z,22.13
2023-01-30T07:08:12.390Z,22.23
2023-01-30T07:10:42.422Z,21.73
2023-01-30T07:13:10.892Z,20.43
2023-01-30T07:15:39.298Z,23.83
2023-01-30T07:18:07.386Z,21.10
2023-01-30T07:20:35.593Z,21.67
2023-01-30T07:23:04.608Z,21.73
2023-01-30T07:25:32.634Z,21.10
2023-01-30T07:28:03.482Z,18.90
2023-01-30T07:30:33.473Z,21.07
2023-01-30T07:33:01.766Z,20.87
2023-01-30T07:35:32.239Z,20.50
2023-01-30T07:38:00.525Z,19.00
2023-01-30T07:40:28.899Z,20.67
2023-01-30T07:42:58.941Z,18.23
2023-01-30T07:45:31.089Z,19.43
2023-01-30T07:47:59.442Z,20.07
2023-01-30T07:50:27.731Z,17.60
2023-01-30T07:52:56.025Z,22.23
2023-01-30T07:55:24.365Z,23.33
2023-01-30T07:57:52.497Z,18.90
2023-01-30T08:00:21.270Z,17.87
2023-01-30T08:02:50.954Z,25.33
2023-01-30T08:05:19.250Z,21.00
2023-01-30T08:07:48.371Z,25.23
2023-01-30T08:10:17.302Z,21.77
2023-01-30T08:12:45.644Z,21.63
2023-01-30T08:15:13.737Z,19.93
2023-01-30T08:17:41.870Z,19.40
2023-01-30T08:20:16.776Z,15.60
2023-01-30T08:22:45.411Z,22.27
2023-01-30T08:25:13.478Z,22.43
2023-01-30T08:27:41.621Z,23.20
2023-01-30T08:30:11.020Z,24.40
2023-01-30T08:32:39.121Z,21.90
2023-01-30T08:35:08.332Z,19.63
2023-01-30T08:37:37.962Z,20.00
2023-01-30T08:40:07.016Z,23.93
2023-01-30T08:42:35.234Z,24.63
2023-01-30T08:45:03.336Z,24.07
2023-01-30T08:47:32.022Z,22.77
2023-01-30T08:50:00.170Z,22.33
2023-01-30T08:52:28.374Z,25.50
2023-01-30T08:54:57.849Z,24.80
2023-01-30T08:57:25.950Z,17.80
2023-01-30T08:59:54.044Z,24.70
2023-01-30T09:02:22.194Z,24.53
2023-01-30T09:04:50.275Z,19.03
2023-01-30T09:07:18.367Z,21.50
2023-01-30T09:09:46.473Z,18.43
2023-01-30T09:12:16.205Z,20.70
2023-01-30T09:14:44.245Z,19.57
2023-01-30T09:17:12.418Z,22.83
2023-01-30T09:19:40.817Z,20.73
2023-01-30T09:22:08.954Z,21.50
2023-01-30T09:24:37.276Z,20.70
2023-01-30T09:27:05.521Z,22.63
2023-01-30T09:29:34.999Z,21.73
2023-01-30T09:32:03.209Z,20.90
2023-01-30T09:34:31.348Z,20.13
2023-01-30T09:37:00.328Z,22.67
2023-01-30T09:39:29.022Z,20.40
2023-01-30T09:42:12.803Z,18.17
2023-01-30T09:45:05.150Z,20.93
2023-01-30T09:47:41.777Z,23.03
2023-01-30T09:50:24.876Z,23.33
2023-01-30T09:52:59.232Z,21.23
2023-01-30T09:55:29.636Z,21.33
2023-01-30T09:57:59.726Z,25.67
2023-01-30T10:00:35.411Z,18.80
2023-01-30T10:03:11.325Z,14.87
2023-01-30T10:05:45.352Z,16.13
2023-01-30T10:08:35.738Z,17.80
2023-01-30T10:11:10.860Z,22.80
2023-01-30T10:14:02.347Z,21.47
2023-01-30T10:16:39.055Z,17.80
2023-01-30T10:19:36.394Z,23.07
2023-01-30T10:22:17.641Z,23.60
2023-01-30T10:24:57.416Z,16.90
2023-01-30T10:27:30.176Z,18.80
2023-01-30T10:30:02.241Z,18.50
2023-01-30T10:32:40.103Z,20.03
2023-01-30T10:35:16.894Z,22.60
2023-01-30T10:37:54.300Z,16.20
2023-01-30T10:40:29.457Z,15.37
2023-01-30T10:59:12.645Z,21.50
2023-01-30T11:01:45.568Z,14.97
2023-01-30T11:04:23.630Z,15.23
2023-01-30T11:06:53.513Z,13.70
2023-01-30T11:09:23.731Z,14.17
2023-01-30T11:11:54.190Z,14.50
2023-01-30T11:14:23.688Z,16.83
2023-01-30T11:16:54.447Z,15.23
2023-01-30T11:19:25.818Z,23.13
2023-01-30T11:21:56.267Z,15.53
2023-01-30T11:24:30.459Z,18.93
2023-01-30T11:27:11.157Z,13.93
2023-01-30T11:29:41.036Z,18.00
2023-01-30T11:32:15.753Z,21.30
2023-01-30T11:34:48.132Z,15.40
2023-01-30T11:37:26.522Z,17.90
2023-01-30T11:39:55.074Z,19.20
2023-01-30T11:42:31.049Z,18.33
2023-01-30T11:45:17.266Z,23.60
2023-01-30T11:47:57.917Z,20.47
2023-01-30T11:50:37.180Z,17.83
2023-01-30T11:53:18.620Z,21.27
2023-01-30T11:55:56.475Z,17.10
2023-01-30T11:58:32.529Z,21.30
2023-01-30T12:01:03.105Z,19.87
2023-01-30T12:03:31.480Z,18.50
2023-01-30T12:06:00.255Z,17.47
2023-01-30T12:08:41.865Z,20.03
2023-01-30T12:11:30.474Z,22.57
2023-01-30T12:14:10.117Z,18.10
2023-01-30T12:16:53.564Z,17.23
2023-01-30T12:19:32.243Z,18.47
2023-01-30T12:22:05.569Z,18.70
2023-01-30T12:24:41.017Z,19.67
2023-01-30T12:27:17.486Z,19.20
2023-01-30T12:29:57.965Z,23.13
2023-01-30T12:32:32.208Z,23.43
2023-01-30T12:35:00.616Z,20.03
2023-01-30T12:37:43.462Z,15.07
2023-01-30T12:40:25.423Z,24.33
2023-01-30T12:43:20.692Z,17.60
2023-01-30T12:45:56.258Z,22.20
2023-01-30T12:49:10.894Z,16.83
2023-01-30T12:51:56.641Z,18.97
2023-01-30T12:54:40.974Z,12.20
2023-01-30T12:57:21.746Z,14.37
2023-01-30T12:59:59.706Z,12.03
2023-01-30T13:02:57.310Z,11.67
2023-01-30T13:05:40.968Z,9.27
2023-01-30T13:08:36.151Z,12.90
2023-01-30T13:11:15.389Z,13.90
2023-01-30T13:13:52.550Z,12.90
2023-01-30T13:16:29.059Z,16.30
2023-01-30T13:19:04.378Z,14.27
2023-01-30T13:21:39.664Z,17.23
2023-01-30T13:24:20.889Z,15.17
2023-01-30T13:26:53.902Z,18.40
2023-01-30T13:29:32.693Z,11.03
2023-01-30T13:32:07.779Z,17.77
2023-01-30T13:34:43.471Z,14.67
2023-01-30T13:37:22.125Z,12.67
2023-01-30T13:39:57.249Z,18.53
2023-01-30T13:42:38.104Z,17.90
2023-01-30T13:45:10.565Z,16.73
2023-01-30T13:47:51.033Z,15.63
2023-01-30T13:50:38.039Z,12.83
2023-01-30T13:53:14.267Z,19.30
2023-01-30T13:55:50.054Z,13.50
2023-01-30T13:58:44.310Z,16.87
2023-01-30T14:01:23.198Z,14.90
2023-01-30T14:03:51.793Z,18.50
2023-01-30T14:06:38.920Z,21.00
2023-01-30T14:09:21.425Z,18.50
2023-01-30T14:11:57.060Z,17.60
2023-01-30T14:14:29.136Z,17.80
2023-01-30T14:17:08.235Z,19.97
2023-01-30T14:19:43.059Z,16.73
2023-01-30T14:22:32.055Z,21.77
2023-01-30T14:25:35.445Z,24.60
2023-01-30T14:28:52.178Z,20.97
2023-01-30T14:31:53.908Z,18.60
2023-01-30T14:35:07.839Z,21.57
2023-01-30T14:38:18.035Z,17.03
2023-01-30T14:40:50.240Z,21.53
2023-01-30T14:43:52.771Z,22.70
2023-01-30T14:46:57.199Z,19.93
2023-01-30T14:49:34.150Z,16.47
2023-01-30T14:52:04.235Z,19.87
2023-01-30T14:54:42.296Z,16.53
2023-01-30T14:57:32.868Z,19.47
2023-01-30T15:00:18.176Z,17.00
2023-01-30T15:02:53.167Z,15.40
2023-01-30T15:05:27.916Z,15.70
2023-01-30T15:08:03.659Z,18.03
2023-01-30T15:10:59.356Z,14.90
2023-01-30T15:13:56.776Z,15.83
2023-01-30T15:17:05.549Z,23.10
2023-01-30T15:19:55.519Z,16.27
2023-01-30T15:22:32.931Z,23.43
2023-01-30T15:25:27.629Z,17.10
2023-01-30T15:28:20.393Z,12.70
2023-01-30T15:31:00.942Z,18.13
2023-01-30T15:33:32.135Z,12.70
2023-01-30T15:36:00.873Z,18.30
2023-01-30T15:38:32.007Z,14.93
2023-01-30T15:41:03.767Z,19.70
2023-01-30T15:44:11.624Z,20.80
2023-01-30T15:46:49.889Z,18.33
2023-01-30T15:49:44.668Z,21.13
2023-01-30T15:52:16.910Z,19.20
2023-01-30T15:54:50.096Z,15.90
2023-01-30T15:57:24.930Z,15.50
2023-01-30T15:59:55.418Z,20.50
2023-01-30T16:02:31.918Z,20.50
2023-01-30T16:05:17.126Z,21.67
2023-01-30T16:07:46.929Z,21.83
2023-01-30T16:10:17.934Z,18.57
2023-01-30T16:12:46.618Z,14.93
2023-01-30T16:15:19.835Z,15.03
2023-01-30T16:18:05.552Z,13.67
2023-01-30T16:20:48.714Z,14.50
2023-01-30T16:23:26.114Z,14.17
2023-01-30T16:25:55.813Z,21.13
2023-01-30T16:28:25.006Z,17.53
2023-01-30T16:30:59.894Z,13.83
2023-01-30T16:33:36.125Z,15.40
2023-01-30T16:36:05.889Z,16.47
2023-01-30T16:38:40.464Z,17.50
2023-01-30T16:41:30.703Z,15.03
2023-01-30T16:44:11.421Z,11.00
2023-01-30T16:46:51.269Z,12.47
2023-01-30T16:49:24.264Z,13.10
2023-01-30T16:52:02.288Z,14.83
2023-01-30T16:54:32.430Z,20.23
2023-01-30T16:57:02.802Z,16.60
2023-01-30T16:59:33.230Z,19.60
2023-01-30T17:02:03.604Z,18.60
2023-01-30T17:04:35.715Z,20.17
2023-01-30T17:07:05.258Z,19.63
2023-01-30T17:09:41.625Z,16.23
2023-01-30T17:12:49.445Z,18.00
2023-01-30T17:15:34.895Z,15.20
2023-01-30T17:18:03.807Z,15.10
2023-01-30T17:20:39.281Z,16.13
2023-01-30T17:23:14.398Z,13.80
2023-01-30T17:25:45.843Z,14.50
2023-01-30T17:28:21.458Z,21.00
2023-01-30T17:30:50.927Z,16.60
2023-01-30T17:33:19.373Z,20.70
2023-01-30T17:35:49.062Z,13.73
2023-01-30T17:38:17.203Z,15.50
2023-01-30T17:40:46.120Z,22.10
2023-01-30T17:43:14.808Z,16.30
2023-01-30T17:45:43.033Z,14.67
2023-01-30T17:48:13.236Z,17.20
2023-01-30T17:50:41.537Z,16.03
2023-01-30T17:53:11.037Z,19.40
2023-01-30T17:55:39.556Z,17.50
2023-01-30T17:58:07.751Z,19.73
2023-01-30T18:00:35.886Z,17.90
2023-01-30T18:03:04.133Z,20.37
2023-01-30T18:05:32.282Z,22.57
2023-01-30T18:08:01.338Z,14.67
2023-01-30T18:10:30.902Z,22.50
2023-01-30T18:12:59.109Z,18.20
2023-01-30T18:15:27.253Z,13.10
2023-01-30T18:17:56.510Z,18.00
2023-01-30T18:20:24.786Z,21.50
2023-01-30T18:22:53.082Z,18.93
2023-01-30T18:25:21.662Z,21.97
2023-01-30T18:27:51.656Z,20.50
2023-01-30T18:30:20.694Z,21.87
2023-01-30T18:32:53.394Z,17.60
2023-01-30T18:35:23.198Z,22.57
2023-01-30T18:37:51.902Z,23.10
2023-01-30T18:40:21.290Z,23.37
2023-01-30T18:42:51.119Z,25.57
2023-01-30T18:45:19.328Z,21.10
2023-01-30T18:47:47.460Z,23.63
2023-01-30T18:50:15.691Z,26.77
2023-01-30T18:52:43.974Z,24.40
2023-01-30T18:55:12.134Z,27.17
2023-01-30T18:57:40.337Z,26.20
2023-01-30T19:00:12.629Z,19.00
2023-01-30T19:02:40.885Z,21.87
2023-01-30T19:05:09.630Z,29.83
2023-01-30T19:07:37.803Z,23.83
2023-01-30T19:10:06.471Z,22.90
2023-01-30T19:12:52.447Z,19.13
2023-01-30T19:15:21.970Z,20.77
2023-01-30T19:17:50.181Z,19.40
2023-01-30T19:20:21.386Z,19.57
2023-01-30T19:22:50.517Z,16.20
2023-01-30T19:25:18.799Z,19.53
2023-01-30T19:27:47.102Z,18.70
2023-01-30T19:30:16.056Z,20.77
2023-01-30T19:32:45.963Z,16.93
2023-01-30T19:35:14.132Z,20.23
2023-01-30T19:37:42.359Z,16.73
2023-01-30T19:40:12.075Z,17.20
2023-01-30T19:42:43.936Z,16.33
2023-01-30T19:45:13.583Z,15.80
2023-01-30T19:47:41.811Z,20.47
2023-01-30T19:50:14.105Z,18.37
2023-01-30T19:52:42.413Z,14.40
2023-01-30T19:55:10.967Z,15.60
2023-01-30T19:57:39.216Z,17.30
2023-01-30T20:00:08.848Z,17.13
2023-01-30T20:02:37.767Z,14.33
2023-01-30T20:05:06.696Z,13.33
2023-01-30T20:07:38.587Z,16.23
2023-01-30T20:10:07.451Z,10.30
2023-01-30T20:12:36.020Z,14.70
2023-01-30T20:15:05.570Z,13.97
2023-01-30T20:17:34.265Z,15.17
2023-01-30T20:20:02.471Z,15.40
2023-01-30T20:22:30.671Z,16.13
2023-01-30T20:25:00.260Z,18.33
2023-01-30T20:27:28.445Z,20.10
2023-01-30T20:29:56.492Z,17.83
2023-01-30T20:32:24.483Z,21.97
2023-01-30T20:34:52.611Z,22.10
2023-01-30T20:37:20.656Z,27.67
2023-01-30T20:39:50.978Z,22.00
2023-01-30T20:42:20.462Z,22.53
2023-01-30T20:44:48.483Z,27.63
2023-01-30T20:47:16.514Z,19.67
2023-01-30T20:49:44.688Z,18.90
2023-01-30T20:52:15.876Z,23.10
2023-01-30T20:54:43.981Z,22.07
2023-01-30T20:57:12.711Z,22.40
2023-01-30T20:59:42.402Z,22.00
2023-01-30T21:02:14.683Z,18.90
2023-01-30T21:04:43.028Z,22.67
2023-01-30T21:07:11.034Z,24.70
2023-01-30T21:09:39.482Z,25.40
2023-01-30T21:12:08.073Z,22.33
2023-01-30T21:14:36.051Z,19.63
2023-01-30T21:17:08.294Z,18.70
2023-01-30T21:19:38.169Z,19.27
2023-01-30T21:22:10.880Z,22.50
2023-01-30T21:24:39.616Z,21.07
2023-01-30T21:27:10.752Z,19.83
2023-01-30T21:29:39.150Z,19.07
2023-01-30T21:32:08.749Z,21.50
2023-01-30T21:34:37.043Z,14.83
2023-01-30T21:37:22.269Z,22.87
2023-01-30T21:40:07.731Z,17.20
2023-01-30T21:42:53.209Z,20.17
2023-01-30T21:45:21.833Z,16.80
2023-01-30T21:47:54.135Z,25.10
2023-01-30T21:50:22.392Z,19.00
2023-01-30T21:52:50.540Z,16.90
2023-01-30T21:55:18.941Z,17.47
2023-01-30T21:57:47.141Z,20.77
2023-01-30T22:00:15.921Z,19.70
2023-01-30T22:02:43.986Z,17.23
2023-01-30T22:05:13.376Z,17.23
2023-01-30T22:07:41.458Z,25.90
2023-01-30T22:10:10.628Z,18.73
2023-01-30T22:12:40.112Z,15.70
2023-01-30T22:15:09.446Z,16.07
2023-01-30T22:17:37.491Z,14.87
2023-01-30T22:20:06.187Z,17.00
2023-01-30T22:22:36.200Z,19.80
2023-01-30T22:25:04.408Z,19.20
2023-01-30T22:27:32.491Z,20.50
2023-01-30T22:30:00.554Z,16.90
2023-01-30T22:32:28.546Z,21.23
2023-01-30T22:34:56.534Z,20.80
2023-01-30T22:37:24.651Z,12.80
2023-01-30T22:39:54.136Z,18.73
2023-01-30T22:42:22.260Z,15.83
2023-01-30T22:44:50.301Z,18.33
2023-01-30T22:47:18.447Z,16.60
2023-01-30T22:49:46.465Z,25.30
2023-01-30T22:52:14.483Z,19.20
2023-01-30T22:54:42.528Z,19.60
2023-01-30T22:57:12.020Z,20.83
2023-01-30T22:59:40.495Z,20.30
2023-01-30T23:02:10.262Z,18.33
2023-01-30T23:04:39.016Z,15.40
2023-01-30T23:07:07.113Z,13.37
2023-01-30T23:09:35.629Z,18.40
2023-01-30T23:12:20.829Z,17.07
2023-01-30T23:14:50.254Z,14.80
2023-01-30T23:17:35.971Z,20.63
2023-01-30T23:20:04.487Z,16.97
2023-01-30T23:22:32.556Z,16.83
2023-01-30T23:25:00.570Z,13.23
2023-01-30T23:27:28.684Z,10.50
2023-01-30T23:29:58.165Z,13.77
2023-01-30T23:32:26.434Z,11.73
2023-01-30T23:34:54.510Z,13.30
2023-01-30T23:37:42.777Z,13.70
2023-01-30T23:40:12.127Z,15.10
2023-01-30T23:42:40.217Z,13.30
2023-01-30T23:45:10.971Z,15.07
2023-01-30T23:47:39.009Z,15.97
2023-01-30T23:50:07.665Z,12.63
2023-01-30T23:52:36.324Z,13.37
2023-01-30T23:55:04.614Z,14.23
2023-01-30T23:57:32.657Z,12.80
